sensor_id;sensor_type;location;lat;lon;timestamp;pressure;altitude;pressure_sealevel;temperature;humidity
2397;BME280;1209;48.410;9.054;2022-08-21T00:00:32;96428.44;;;16.31;100.00
2397;BME280;1209;48.410;9.054;2022-08-21T00:03:00;96427.22;;;16.27;100.00
2397;BME280;1209;48.410;9.054;2022-08-21T00:05:27;96434.13;;;16.22;100.00
2397;BME280;1209;48.410;9.054;2022-08-21T00:07:53;96429.09;;;16.00;100.00
2397;BME280;1209;48.410;9.054;2022-08-21T00:10:19;96427.47;;;16.13;100.00
2397;BME280;1209;48.410;9.054;2022-08-21T00:12:45;96416.31;;;15.91;100.00
2397;BME280;1209;48.410;9.054;2022-08-21T00:15:13;96423.03;;;15.87;100.00
2397;BME280;1209;48.410;9.054;2022-08-21T00:17:39;96420.19;;;15.82;100.00
2397;BME280;1209;48.410;9.054;2022-08-21T00:20:08;96421.59;;;15.84;100.00
2397;BME280;1209;48.410;9.054;2022-08-21T00:22:35;96427.28;;;15.81;100.00
2397;BME280;1209;48.410;9.054;2022-08-21T00:25:00;96419.38;;;15.74;100.00
2397;BME280;1209;48.410;9.054;2022-08-21T00:27:26;96420.00;;;15.77;100.00
2397;BME280;1209;48.410;9.054;2022-08-21T00:29:51;96418.56;;;15.81;100.00
2397;BME280;1209;48.410;9.054;2022-08-21T00:32:22;96411.69;;;15.73;100.00
2397;BME280;1209;48.410;9.054;2022-08-21T00:34:48;96406.22;;;15.68;100.00
2397;BME280;1209;48.410;9.054;2022-08-21T00:37:14;96410.06;;;15.65;100.00
2397;BME280;1209;48.410;9.054;2022-08-21T00:39:40;96411.66;;;15.60;100.00
2397;BME280;1209;48.410;9.054;2022-08-21T00:42:05;96411.41;;;15.35;100.00
2397;BME280;1209;48.410;9.054;2022-08-21T00:44:31;96406.38;;;15.53;100.00
2397;BME280;1209;48.410;9.054;2022-08-21T00:46:56;96403.31;;;15.43;100.00
2397;BME280;1209;48.410;9.054;2022-08-21T00:49:22;96405.97;;;15.56;100.00
2397;BME280;1209;48.410;9.054;2022-08-21T00:51:50;96403.72;;;15.47;100.00
2397;BME280;1209;48.410;9.054;2022-08-21T00:54:18;96407.59;;;15.51;100.00
2397;BME280;1209;48.410;9.054;2022-08-21T00:56:54;96409.19;;;15.52;100.00
2397;BME280;1209;48.410;9.054;2022-08-21T00:59:21;96407.59;;;15.57;100.00
2397;BME280;1209;48.410;9.054;2022-08-21T01:01:49;96405.56;;;15.53;100.00
2397;BME280;1209;48.410;9.054;2022-08-21T01:04:15;96403.34;;;15.50;100.00
2397;BME280;1209;48.410;9.054;2022-08-21T01:06:41;96403.13;;;15.38;100.00
2397;BME280;1209;48.410;9.054;2022-08-21T01:09:07;96400.91;;;15.41;100.00
2397;BME280;1209;48.410;9.054;2022-08-21T01:11:33;96398.25;;;15.35;100.00
2397;BME280;1209;48.410;9.054;2022-08-21T01:13:58;96395.22;;;15.25;100.00
2397;BME280;1209;48.410;9.054;2022-08-21T01:16:24;96398.25;;;15.15;100.00
2397;BME280;1209;48.410;9.054;2022-08-21T01:18:50;96393.00;;;15.22;100.00
2397;BME280;1209;48.410;9.054;2022-08-21T01:21:22;96394.56;;;15.09;100.00
2397;BME280;1209;48.410;9.054;2022-08-21T01:23:51;96389.91;;;15.05;100.00
2397;BME280;1209;48.410;9.054;2022-08-21T01:26:21;96392.53;;;15.11;100.00
2397;BME280;1209;48.410;9.054;2022-08-21T01:28:56;96390.91;;;15.10;100.00
2397;BME280;1209;48.410;9.054;2022-08-21T01:31:25;96391.31;;;15.07;100.00
2397;BME280;1209;48.410;9.054;2022-08-21T01:33:51;96384.03;;;14.96;100.00
2397;BME280;1209;48.410;9.054;2022-08-21T01:36:17;96384.22;;;14.95;100.00
2397;BME280;1209;48.410;9.054;2022-08-21T01:38:42;96383.63;;;14.99;100.00
2397;BME280;1209;48.410;9.054;2022-08-21T01:41:08;96383.41;;;15.01;100.00
2397;BME280;1209;48.410;9.054;2022-08-21T01:43:33;96382.59;;;15.00;100.00
2397;BME280;1209;48.410;9.054;2022-08-21T01:45:58;96380.56;;;14.89;100.00
2397;BME280;1209;48.410;9.054;2022-08-21T01:48:24;96376.69;;;14.72;100.00
2397;BME280;1209;48.410;9.054;2022-08-21T01:50:49;96378.13;;;14.81;100.00
2397;BME280;1209;48.410;9.054;2022-08-21T01:53:15;96373.25;;;14.78;100.00
2397;BME280;1209;48.410;9.054;2022-08-21T01:55:42;96381.16;;;14.85;100.00
2397;BME280;1209;48.410;9.054;2022-08-21T01:58:07;96371.47;;;14.92;100.00
2397;BME280;1209;48.410;9.054;2022-08-21T02:00:33;96374.50;;;14.89;100.00
2397;BME280;1209;48.410;9.054;2022-08-21T02:02:58;96371.25;;;14.93;100.00
2397;BME280;1209;48.410;9.054;2022-08-21T02:05:25;96369.22;;;14.89;100.00
2397;BME280;1209;48.410;9.054;2022-08-21T02:07:52;96371.84;;;14.82;100.00
2397;BME280;1209;48.410;9.054;2022-08-21T02:10:22;96369.38;;;14.67;100.00
2397;BME280;1209;48.410;9.054;2022-08-21T02:12:48;96361.31;;;14.69;100.00
2397;BME280;1209;48.410;9.054;2022-08-21T02:15:15;96355.44;;;14.73;100.00
2397;BME280;1209;48.410;9.054;2022-08-21T02:17:52;96357.06;;;14.68;100.00
2397;BME280;1209;48.410;9.054;2022-08-21T02:20:28;96361.88;;;14.64;100.00
2397;BME280;1209;48.410;9.054;2022-08-21T02:22:54;96357.63;;;14.63;100.00
2397;BME280;1209;48.410;9.054;2022-08-21T02:25:22;96361.66;;;14.59;100.00
2397;BME280;1209;48.410;9.054;2022-08-21T02:27:48;96357.81;;;14.62;100.00
2397;BME280;1209;48.410;9.054;2022-08-21T02:30:18;96363.06;;;14.62;100.00
2397;BME280;1209;48.410;9.054;2022-08-21T02:32:44;96359.22;;;14.58;100.00
2397;BME280;1209;48.410;9.054;2022-08-21T02:35:10;96355.16;;;14.55;100.00
2397;BME280;1209;48.410;9.054;2022-08-21T02:37:48;96349.28;;;14.46;100.00
2397;BME280;1209;48.410;9.054;2022-08-21T02:40:14;96356.53;;;14.44;100.00
2397;BME280;1209;48.410;9.054;2022-08-21T02:42:40;96353.88;;;14.38;100.00
2397;BME280;1209;48.410;9.054;2022-08-21T02:45:07;96355.66;;;14.31;100.00
2397;BME280;1209;48.410;9.054;2022-08-21T02:47:32;96348.66;;;14.10;100.00
2397;BME280;1209;48.410;9.054;2022-08-21T02:49:57;96353.63;;;14.26;100.00
2397;BME280;1209;48.410;9.054;2022-08-21T02:52:23;96354.22;;;14.28;100.00
2397;BME280;1209;48.410;9.054;2022-08-21T02:54:49;96344.34;;;14.30;100.00
2397;BME280;1209;48.410;9.054;2022-08-21T02:57:15;96351.03;;;14.33;100.00
2397;BME280;1209;48.410;9.054;2022-08-21T02:59:40;96356.88;;;14.28;100.00
2397;BME280;1209;48.410;9.054;2022-08-21T03:02:06;96360.94;;;14.37;100.00
2397;BME280;1209;48.410;9.054;2022-08-21T03:04:31;96351.03;;;14.33;100.00
2397;BME280;1209;48.410;9.054;2022-08-21T03:06:57;96356.88;;;14.35;100.00
2397;BME280;1209;48.410;9.054;2022-08-21T03:09:22;96354.22;;;14.28;100.00
2397;BME280;1209;48.410;9.054;2022-08-21T03:11:49;96348.56;;;14.25;100.00
2397;BME280;1209;48.410;9.054;2022-08-21T03:14:17;96356.22;;;14.20;100.00
2397;BME280;1209;48.410;9.054;2022-08-21T03:16:42;96352.94;;;14.17;100.00
2397;BME280;1209;48.410;9.054;2022-08-21T03:19:08;96347.88;;;14.16;100.00
2397;BME280;1209;48.410;9.054;2022-08-21T03:21:33;96346.69;;;14.18;100.00
2397;BME280;1209;48.410;9.054;2022-08-21T03:23:59;96348.75;;;14.23;100.00
2397;BME280;1209;48.410;9.054;2022-08-21T03:26:24;96349.56;;;14.24;100.00
2397;BME280;1209;48.410;9.054;2022-08-21T03:28:49;96358.44;;;14.23;100.00
2397;BME280;1209;48.410;9.054;2022-08-21T03:31:16;96358.44;;;14.23;100.00
2397;BME280;1209;48.410;9.054;2022-08-21T03:33:42;96360.19;;;14.09;100.00
2397;BME280;1209;48.410;9.054;2022-08-21T03:36:10;96349.28;;;14.12;100.00
2397;BME280;1209;48.410;9.054;2022-08-21T03:38:37;96349.44;;;14.04;100.00
2397;BME280;1209;48.410;9.054;2022-08-21T03:41:03;96353.72;;;14.11;100.00
2397;BME280;1209;48.410;9.054;2022-08-21T03:43:29;96349.50;;;14.17;100.00
2397;BME280;1209;48.410;9.054;2022-08-21T03:45:55;96351.00;;;14.26;100.00
2397;BME280;1209;48.410;9.054;2022-08-21T03:48:20;96351.13;;;14.18;100.00
2397;BME280;1209;48.410;9.054;2022-08-21T03:50:46;96350.09;;;14.12;100.00
2397;BME280;1209;48.410;9.054;2022-08-21T03:53:13;96354.47;;;13.99;100.00
2397;BME280;1209;48.410;9.054;2022-08-21T03:55:39;96360.88;;;13.90;100.00
2397;BME280;1209;48.410;9.054;2022-08-21T03:58:04;96357.25;;;13.91;100.00
2397;BME280;1209;48.410;9.054;2022-08-21T04:00:30;96353.63;;;13.92;100.00
2397;BME280;1209;48.410;9.054;2022-08-21T04:02:56;96354.84;;;13.96;100.00
2397;BME280;1209;48.410;9.054;2022-08-21T04:05:21;96360.91;;;13.96;100.00
2397;BME280;1209;48.410;9.054;2022-08-21T04:07:57;96364.50;;;13.89;100.00
2397;BME280;1209;48.410;9.054;2022-08-21T04:10:24;96356.81;;;13.87;100.00
2397;BME280;1209;48.410;9.054;2022-08-21T04:12:51;96361.22;;;13.80;100.00
2397;BME280;1209;48.410;9.054;2022-08-21T04:15:17;96361.41;;;13.78;100.00
2397;BME280;1209;48.410;9.054;2022-08-21T04:17:42;96365.44;;;13.74;100.00
2397;BME280;1209;48.410;9.054;2022-08-21T04:20:08;96358.38;;;13.75;100.00
2397;BME280;1209;48.410;9.054;2022-08-21T04:22:33;96354.41;;;13.85;100.00
2397;BME280;1209;48.410;9.054;2022-08-21T04:24:59;96358.84;;;13.85;100.00
2397;BME280;1209;48.410;9.054;2022-08-21T04:27:24;96367.28;;;13.80;100.00
2397;BME280;1209;48.410;9.054;2022-08-21T04:29:49;96370.31;;;13.77;100.00
2397;BME280;1209;48.410;9.054;2022-08-21T04:32:22;96372.94;;;13.77;100.00
2397;BME280;1209;48.410;9.054;2022-08-21T04:34:47;96375.56;;;13.77;100.00
2397;BME280;1209;48.410;9.054;2022-08-21T04:37:13;96374.16;;;13.81;100.00
2397;BME280;1209;48.410;9.054;2022-08-21T04:39:40;96376.34;;;13.78;100.00
2397;BME280;1209;48.410;9.054;2022-08-21T04:42:05;96387.66;;;13.78;100.00
2397;BME280;1209;48.410;9.054;2022-08-21T04:44:32;96377.38;;;13.77;100.00
2397;BME280;1209;48.410;9.054;2022-08-21T04:46:57;96394.13;;;13.76;100.00
2397;BME280;1209;48.410;9.054;2022-08-21T04:49:23;96386.16;;;13.69;100.00
2397;BME280;1209;48.410;9.054;2022-08-21T04:51:48;96384.16;;;13.71;100.00
2397;BME280;1209;48.410;9.054;2022-08-21T04:54:19;96392.31;;;13.76;100.00
2397;BME280;1209;48.410;9.054;2022-08-21T04:56:50;96392.03;;;13.71;100.00
2397;BME280;1209;48.410;9.054;2022-08-21T04:59:21;96394.31;;;13.74;100.00
2397;BME280;1209;48.410;9.054;2022-08-21T05:01:48;96387.66;;;13.78;100.00
2397;BME280;1209;48.410;9.054;2022-08-21T05:04:18;96390.91;;;13.80;100.00
2397;BME280;1209;48.410;9.054;2022-08-21T05:06:48;96381.88;;;13.90;100.00
2397;BME280;1209;48.410;9.054;2022-08-21T05:09:17;96389.38;;;13.93;100.00
2397;BME280;1209;48.410;9.054;2022-08-21T05:11:43;96391.22;;;13.99;100.00
2397;BME280;1209;48.410;9.054;2022-08-21T05:14:10;96391.47;;;14.04;100.00
2397;BME280;1209;48.410;9.054;2022-08-21T05:16:36;96405.22;;;14.06;100.00
2397;BME280;1209;48.410;9.054;2022-08-21T05:19:02;96393.50;;;14.08;100.00
2397;BME280;1209;48.410;9.054;2022-08-21T05:21:27;96394.16;;;14.17;100.00
2397;BME280;1209;48.410;9.054;2022-08-21T05:23:52;96396.44;;;14.20;100.00
2397;BME280;1209;48.410;9.054;2022-08-21T05:26:18;96396.47;;;14.27;100.00
2397;BME280;1209;48.410;9.054;2022-08-21T05:28:43;96394.22;;;14.24;100.00
2397;BME280;1209;48.410;9.054;2022-08-21T05:31:08;96405.97;;;14.28;100.00
2397;BME280;1209;48.410;9.054;2022-08-21T05:33:34;96405.72;;;14.23;100.00
2397;BME280;1209;48.410;9.054;2022-08-21T05:35:59;96407.97;;;14.26;100.00
2397;BME280;1209;48.410;9.054;2022-08-21T05:38:25;96401.53;;;14.28;100.00
2397;BME280;1209;48.410;9.054;2022-08-21T05:40:52;96405.38;;;14.32;100.00
2397;BME280;1209;48.410;9.054;2022-08-21T05:43:18;96403.78;;;14.38;100.00
2397;BME280;1209;48.410;9.054;2022-08-21T05:45:44;96415.78;;;14.47;100.00
2397;BME280;1209;48.410;9.054;2022-08-21T05:48:23;96407.94;;;14.54;100.00
2397;BME280;1209;48.410;9.054;2022-08-21T05:50:50;96413.06;;;14.68;100.00
2397;BME280;1209;48.410;9.054;2022-08-21T05:53:17;96414.94;;;14.81;100.00
2397;BME280;1209;48.410;9.054;2022-08-21T05:55:44;96414.97;;;14.94;100.00
2397;BME280;1209;48.410;9.054;2022-08-21T05:58:10;96411.94;;;14.97;100.00
2397;BME280;1209;48.410;9.054;2022-08-21T06:00:36;96411.34;;;15.02;100.00
2397;BME280;1209;48.410;9.054;2022-08-21T06:03:03;96414.38;;;15.05;100.00
2397;BME280;1209;48.410;9.054;2022-08-21T06:05:28;96417.84;;;15.12;100.00
2397;BME280;1209;48.410;9.054;2022-08-21T06:07:53;96411.22;;;15.23;100.00
2397;BME280;1209;48.410;9.054;2022-08-21T06:10:19;96416.28;;;15.31;100.00
2397;BME280;1209;48.410;9.054;2022-08-21T06:12:45;96422.34;;;15.32;100.00
2397;BME280;1209;48.410;9.054;2022-08-21T06:15:11;96414.06;;;15.35;100.00
2397;BME280;1209;48.410;9.054;2022-08-21T06:17:36;96424.19;;;15.44;100.00
2397;BME280;1209;48.410;9.054;2022-08-21T06:20:03;96423.38;;;15.57;100.00
2397;BME280;1209;48.410;9.054;2022-08-21T06:22:28;96422.63;;;15.70;100.00
2397;BME280;1209;48.410;9.054;2022-08-21T06:24:54;96422.22;;;15.80;100.00
2397;BME280;1209;48.410;9.054;2022-08-21T06:27:19;96423.22;;;15.85;100.00
2397;BME280;1209;48.410;9.054;2022-08-21T06:29:45;96419.38;;;15.88;100.00
2397;BME280;1209;48.410;9.054;2022-08-21T06:32:12;96422.00;;;15.88;100.00
2397;BME280;1209;48.410;9.054;2022-08-21T06:34:39;96423.41;;;15.97;100.00
2397;BME280;1209;48.410;9.054;2022-08-21T06:37:05;96411.66;;;16.19;100.00
2397;BME280;1209;48.410;9.054;2022-08-21T06:39:32;96418.72;;;16.32;100.00
2397;BME280;1209;48.410;9.054;2022-08-21T06:41:57;96422.31;;;16.44;100.00
2397;BME280;1209;48.410;9.054;2022-08-21T06:44:22;96417.22;;;16.62;100.00
2397;BME280;1209;48.410;9.054;2022-08-21T06:46:48;96412.31;;;16.79;100.00
2397;BME280;1209;48.410;9.054;2022-08-21T06:49:14;96401.09;;;16.90;100.00
2397;BME280;1209;48.410;9.054;2022-08-21T06:51:39;96402.88;;;16.96;100.00
2397;BME280;1209;48.410;9.054;2022-08-21T06:54:05;96401.38;;;17.14;100.00
2397;BME280;1209;48.410;9.054;2022-08-21T06:56:30;96406.44;;;17.15;100.00
2397;BME280;1209;48.410;9.054;2022-08-21T06:58:56;96403.16;;;17.20;100.00
2397;BME280;1209;48.410;9.054;2022-08-21T07:01:25;96401.97;;;17.47;100.00
2397;BME280;1209;48.410;9.054;2022-08-21T07:03:50;96394.91;;;17.73;100.00
2397;BME280;1209;48.410;9.054;2022-08-21T07:06:16;96401.09;;;17.85;100.00
2397;BME280;1209;48.410;9.054;2022-08-21T07:08:42;96403.63;;;17.98;100.00
2397;BME280;1209;48.410;9.054;2022-08-21T07:11:13;96390.75;;;18.27;100.00
2397;BME280;1209;48.410;9.054;2022-08-21T07:13:39;96394.59;;;18.49;100.00
2397;BME280;1209;48.410;9.054;2022-08-21T07:16:05;96390.03;;;18.74;100.00
2397;BME280;1209;48.410;9.054;2022-08-21T07:18:31;96397.00;;;18.87;100.00
2397;BME280;1209;48.410;9.054;2022-08-21T07:20:56;96396.63;;;19.02;100.00
2397;BME280;1209;48.410;9.054;2022-08-21T07:23:26;96396.16;;;19.05;100.00
2397;BME280;1209;48.410;9.054;2022-08-21T07:25:53;96393.47;;;19.53;100.00
2397;BME280;1209;48.410;9.054;2022-08-21T07:28:19;96401.09;;;19.73;100.00
2397;BME280;1209;48.410;9.054;2022-08-21T07:30:45;96402.16;;;19.95;100.00
2397;BME280;1209;48.410;9.054;2022-08-21T07:33:11;96401.00;;;20.15;100.00
2397;BME280;1209;48.410;9.054;2022-08-21T07:35:37;96389.81;;;20.24;100.00
2397;BME280;1209;48.410;9.054;2022-08-21T07:38:02;96395.25;;;20.18;100.00
2397;BME280;1209;48.410;9.054;2022-08-21T07:40:28;96401.94;;;20.55;100.00
2397;BME280;1209;48.410;9.054;2022-08-21T07:42:53;96395.50;;;20.80;100.00
2397;BME280;1209;48.410;9.054;2022-08-21T07:45:21;96388.94;;;20.82;100.00
2397;BME280;1209;48.410;9.054;2022-08-21T07:47:47;96399.28;;;20.95;100.00
2397;BME280;1209;48.410;9.054;2022-08-21T07:50:13;96398.19;;;21.08;100.00
2397;BME280;1209;48.410;9.054;2022-08-21T07:52:40;96401.19;;;21.12;100.00
2397;BME280;1209;48.410;9.054;2022-08-21T07:55:08;96404.56;;;21.07;100.00
2397;BME280;1209;48.410;9.054;2022-08-21T07:57:33;96393.06;;;20.90;100.00
2397;BME280;1209;48.410;9.054;2022-08-21T07:59:59;96398.19;;;21.08;100.00
2397;BME280;1209;48.410;9.054;2022-08-21T08:02:27;96399.88;;;21.26;100.00
2397;BME280;1209;48.410;9.054;2022-08-21T08:04:53;96399.94;;;21.59;100.00
2397;BME280;1209;48.410;9.054;2022-08-21T08:07:18;96398.13;;;21.77;100.00
2397;BME280;1209;48.410;9.054;2022-08-21T08:09:44;96402.81;;;21.41;100.00
2397;BME280;1209;48.410;9.054;2022-08-21T08:12:10;96400.50;;;21.95;100.00
2397;BME280;1209;48.410;9.054;2022-08-21T08:14:35;96406.16;;;21.98;100.00
2397;BME280;1209;48.410;9.054;2022-08-21T08:17:01;96401.09;;;22.30;100.00
2397;BME280;1209;48.410;9.054;2022-08-21T08:19:27;96392.97;;;22.04;100.00
2397;BME280;1209;48.410;9.054;2022-08-21T08:21:52;96398.75;;;21.84;100.00
2397;BME280;1209;48.410;9.054;2022-08-21T08:24:18;96391.25;;;22.31;100.00
2397;BME280;1209;48.410;9.054;2022-08-21T08:26:43;96383.00;;;22.93;98.96
2397;BME280;1209;48.410;9.054;2022-08-21T08:29:08;96387.16;;;23.11;100.00
2397;BME280;1209;48.410;9.054;2022-08-21T08:31:34;96380.78;;;22.68;97.81
2397;BME280;1209;48.410;9.054;2022-08-21T08:33:59;96377.06;;;22.86;100.00
2397;BME280;1209;48.410;9.054;2022-08-21T08:36:32;96379.44;;;22.66;97.03
2397;BME280;1209;48.410;9.054;2022-08-21T08:38:58;96372.41;;;23.25;93.01
2397;BME280;1209;48.410;9.054;2022-08-21T08:41:24;96381.47;;;23.24;86.21
2397;BME280;1209;48.410;9.054;2022-08-21T08:43:54;96376.94;;;23.24;89.30
2397;BME280;1209;48.410;9.054;2022-08-21T08:46:31;96373.44;;;23.19;91.30
2397;BME280;1209;48.410;9.054;2022-08-21T08:49:06;96375.84;;;23.52;91.87
2397;BME280;1209;48.410;9.054;2022-08-21T08:51:39;96369.41;;;23.48;87.55
2397;BME280;1209;48.410;9.054;2022-08-21T08:54:12;96374.38;;;23.99;86.12
2397;BME280;1209;48.410;9.054;2022-08-21T08:56:39;96367.84;;;24.16;80.93
2397;BME280;1209;48.410;9.054;2022-08-21T08:59:13;96365.72;;;23.81;89.42
2397;BME280;1209;48.410;9.054;2022-08-21T09:01:40;96361.34;;;23.65;89.53
2397;BME280;1209;48.410;9.054;2022-08-21T09:04:07;96364.50;;;24.36;85.28
2397;BME280;1209;48.410;9.054;2022-08-21T09:06:53;96359.78;;;24.59;80.12
2397;BME280;1209;48.410;9.054;2022-08-21T09:09:32;96350.03;;;24.95;79.22
2397;BME280;1209;48.410;9.054;2022-08-21T09:12:18;96355.75;;;25.24;80.94
2397;BME280;1209;48.410;9.054;2022-08-21T09:15:10;96354.03;;;24.87;82.02
2397;BME280;1209;48.410;9.054;2022-08-21T09:17:52;96346.69;;;25.25;78.53
2397;BME280;1209;48.410;9.054;2022-08-21T09:20:36;96347.72;;;25.08;78.63
2397;BME280;1209;48.410;9.054;2022-08-21T09:26:15;96343.63;;;24.91;79.84
2397;BME280;1209;48.410;9.054;2022-08-21T09:28:42;96339.47;;;25.25;78.88
2397;BME280;1209;48.410;9.054;2022-08-21T09:33:47;96332.78;;;25.89;76.56
2397;BME280;1209;48.410;9.054;2022-08-21T09:36:24;96325.53;;;26.10;74.14
2397;BME280;1209;48.410;9.054;2022-08-21T09:38:53;96325.78;;;26.23;76.06
2397;BME280;1209;48.410;9.054;2022-08-21T09:41:27;96324.22;;;26.02;73.08
2397;BME280;1209;48.410;9.054;2022-08-21T09:43:53;96327.91;;;26.37;74.33
2397;BME280;1209;48.410;9.054;2022-08-21T09:46:24;96327.97;;;25.86;70.13
2397;BME280;1209;48.410;9.054;2022-08-21T09:48:52;96323.63;;;26.35;69.49
2397;BME280;1209;48.410;9.054;2022-08-21T09:51:22;96325.44;;;26.55;67.52
2397;BME280;1209;48.410;9.054;2022-08-21T09:53:51;96327.38;;;26.24;64.46
2397;BME280;1209;48.410;9.054;2022-08-21T09:59:16;96326.53;;;27.09;62.77
2397;BME280;1209;48.410;9.054;2022-08-21T10:01:48;96320.91;;;26.46;64.95
2397;BME280;1209;48.410;9.054;2022-08-21T10:04:15;96313.91;;;26.60;61.96
2397;BME280;1209;48.410;9.054;2022-08-21T10:06:44;96321.34;;;27.62;58.97
2397;BME280;1209;48.410;9.054;2022-08-21T10:09:13;96315.47;;;26.66;67.10
2397;BME280;1209;48.410;9.054;2022-08-21T10:11:43;96302.69;;;27.07;63.24
2397;BME280;1209;48.410;9.054;2022-08-21T10:17:03;96307.38;;;27.25;61.58
2397;BME280;1209;48.410;9.054;2022-08-21T10:19:48;96308.56;;;27.48;60.79
2397;BME280;1209;48.410;9.054;2022-08-21T10:22:40;96310.66;;;28.14;57.14
2397;BME280;1209;48.410;9.054;2022-08-21T10:25:14;96302.75;;;27.99;57.31
2397;BME280;1209;48.410;9.054;2022-08-21T10:30:57;96305.19;;;27.67;56.89
2397;BME280;1209;48.410;9.054;2022-08-21T10:33:38;96302.25;;;27.29;60.33
2397;BME280;1209;48.410;9.054;2022-08-21T10:36:21;96301.94;;;27.99;56.62
2397;BME280;1209;48.410;9.054;2022-08-21T10:44:36;96296.06;;;28.20;60.60
2397;BME280;1209;48.410;9.054;2022-08-21T10:47:18;96292.25;;;27.74;60.50
2397;BME280;1209;48.410;9.054;2022-08-21T10:50:10;96288.09;;;27.57;56.72
2397;BME280;1209;48.410;9.054;2022-08-21T10:52:57;96280.38;;;28.33;55.17
2397;BME280;1209;48.410;9.054;2022-08-21T10:55:35;96274.72;;;28.34;60.84
2397;BME280;1209;48.410;9.054;2022-08-21T10:58:09;96279.22;;;27.91;60.85
2397;BME280;1209;48.410;9.054;2022-08-21T11:00:48;96276.44;;;27.72;58.68
2397;BME280;1209;48.410;9.054;2022-08-21T11:06:16;96272.09;;;27.76;59.89
2397;BME280;1209;48.410;9.054;2022-08-21T11:08:46;96283.19;;;28.89;54.98
2397;BME280;1209;48.410;9.054;2022-08-21T11:11:41;96272.00;;;28.58;54.19
2397;BME280;1209;48.410;9.054;2022-08-21T11:14:28;96261.56;;;28.75;55.46
2397;BME280;1209;48.410;9.054;2022-08-21T11:17:05;96262.22;;;29.24;59.12
2397;BME280;1209;48.410;9.054;2022-08-21T11:19:42;96270.34;;;29.70;54.19
2397;BME280;1209;48.410;9.054;2022-08-21T11:22:21;96267.34;;;28.45;56.93
2397;BME280;1209;48.410;9.054;2022-08-21T11:25:03;96262.94;;;28.30;54.47
2397;BME280;1209;48.410;9.054;2022-08-21T11:27:45;96267.13;;;28.41;54.95
2397;BME280;1209;48.410;9.054;2022-08-21T11:30:13;96261.78;;;29.35;53.27
2397;BME280;1209;48.410;9.054;2022-08-21T11:41:23;96258.56;;;30.12;47.53
2397;BME280;1209;48.410;9.054;2022-08-21T11:44:08;96253.75;;;29.95;51.10
2397;BME280;1209;48.410;9.054;2022-08-21T11:54:54;96247.97;;;30.16;51.17
2397;BME280;1209;48.410;9.054;2022-08-21T11:57:30;96238.72;;;30.35;49.80
2397;BME280;1209;48.410;9.054;2022-08-21T12:02:35;96246.09;;;30.02;48.91
2397;BME280;1209;48.410;9.054;2022-08-21T12:05:06;96237.53;;;30.28;48.82
2397;BME280;1209;48.410;9.054;2022-08-21T12:07:41;96234.72;;;30.05;48.71
2397;BME280;1209;48.410;9.054;2022-08-21T12:10:18;96230.75;;;29.05;53.06
2397;BME280;1209;48.410;9.054;2022-08-21T12:12:47;96233.06;;;28.74;52.56
2397;BME280;1209;48.410;9.054;2022-08-21T12:18:28;96221.13;;;29.18;51.56
2397;BME280;1209;48.410;9.054;2022-08-21T12:23:28;96213.97;;;29.46;51.40
2397;BME280;1209;48.410;9.054;2022-08-21T12:28:28;96210.59;;;29.22;54.83
2397;BME280;1209;48.410;9.054;2022-08-21T12:30:55;96212.25;;;29.96;49.44
2397;BME280;1209;48.410;9.054;2022-08-21T12:33:36;96214.69;;;30.75;52.29
2397;BME280;1209;48.410;9.054;2022-08-21T12:36:14;96205.41;;;29.58;50.53
2397;BME280;1209;48.410;9.054;2022-08-21T12:41:48;96206.75;;;29.88;50.38
2397;BME280;1209;48.410;9.054;2022-08-21T12:44:19;96205.97;;;30.15;50.19
2397;BME280;1209;48.410;9.054;2022-08-21T12:46:51;96198.91;;;30.68;45.67
2397;BME280;1209;48.410;9.054;2022-08-21T12:49:49;96197.31;;;28.74;50.04
2397;BME280;1209;48.410;9.054;2022-08-21T12:52:29;96208.16;;;29.06;50.72
2397;BME280;1209;48.410;9.054;2022-08-21T12:54:55;96201.47;;;30.24;47.45
2397;BME280;1209;48.410;9.054;2022-08-21T12:57:23;96201.66;;;30.41;48.35
2397;BME280;1209;48.410;9.054;2022-08-21T12:59:58;96195.06;;;29.65;49.80
2397;BME280;1209;48.410;9.054;2022-08-21T13:02:29;96200.34;;;29.70;50.52
2397;BME280;1209;48.410;9.054;2022-08-21T13:04:57;96204.63;;;30.53;48.59
2397;BME280;1209;48.410;9.054;2022-08-21T13:07:29;96192.50;;;30.15;49.57
2397;BME280;1209;48.410;9.054;2022-08-21T13:10:03;96196.56;;;30.26;49.80
2397;BME280;1209;48.410;9.054;2022-08-21T13:12:30;96190.28;;;28.97;50.26
2397;BME280;1209;48.410;9.054;2022-08-21T13:14:59;96189.75;;;29.27;51.16
2397;BME280;1209;48.410;9.054;2022-08-21T13:17:26;96197.34;;;28.93;50.16
2397;BME280;1209;48.410;9.054;2022-08-21T13:20:18;96197.19;;;29.03;50.40
2397;BME280;1209;48.410;9.054;2022-08-21T13:22:45;96197.84;;;29.27;51.70
2397;BME280;1209;48.410;9.054;2022-08-21T13:25:12;96196.97;;;28.99;48.20
2397;BME280;1209;48.410;9.054;2022-08-21T13:27:39;96189.97;;;28.79;48.08
2397;BME280;1209;48.410;9.054;2022-08-21T13:30:21;96189.94;;;29.17;50.09
2397;BME280;1209;48.410;9.054;2022-08-21T13:32:51;96196.22;;;29.12;48.76
2397;BME280;1209;48.410;9.054;2022-08-21T13:35:34;96187.84;;;29.14;50.28
2397;BME280;1209;48.410;9.054;2022-08-21T13:38:01;96177.47;;;28.70;55.79
2397;BME280;1209;48.410;9.054;2022-08-21T13:40:38;96170.72;;;28.72;52.12
2397;BME280;1209;48.410;9.054;2022-08-21T13:43:11;96178.00;;;29.23;49.79
2397;BME280;1209;48.410;9.054;2022-08-21T13:45:37;96179.03;;;28.95;48.36
2397;BME280;1209;48.410;9.054;2022-08-21T13:48:03;96174.88;;;28.65;49.93
2397;BME280;1209;48.410;9.054;2022-08-21T13:50:30;96182.78;;;28.37;50.29
2397;BME280;1209;48.410;9.054;2022-08-21T13:53:03;96172.34;;;28.12;53.03
2397;BME280;1209;48.410;9.054;2022-08-21T13:55:40;96171.03;;;28.09;54.13
2397;BME280;1209;48.410;9.054;2022-08-21T13:58:07;96174.38;;;28.20;61.29
2397;BME280;1209;48.410;9.054;2022-08-21T14:00:45;96178.44;;;28.17;58.00
2397;BME280;1209;48.410;9.054;2022-08-21T14:03:27;96173.38;;;28.16;54.65
2397;BME280;1209;48.410;9.054;2022-08-21T14:05:53;96178.31;;;28.09;60.04
2397;BME280;1209;48.410;9.054;2022-08-21T14:08:34;96174.53;;;28.10;60.51
2397;BME280;1209;48.410;9.054;2022-08-21T14:11:03;96176.38;;;27.67;54.51
2397;BME280;1209;48.410;9.054;2022-08-21T14:16:08;96166.31;;;28.01;51.40
2397;BME280;1209;48.410;9.054;2022-08-21T14:18:47;96171.97;;;27.76;52.14
2397;BME280;1209;48.410;9.054;2022-08-21T14:21:12;96163.69;;;27.72;52.48